Time;durP1;ratioP1;P1;durP2;ratioP2;P2;SDS_P1;SDS_P2;PMS_P1;PMS_P2;Temp;Humidity;BMP_temperature;BMP_pressure;BME280_temperature;BME280_humidity;BME280_pressure;Samples;Min_cycle;Max_cycle;Signal;HPM_P1;HPM_P2
2021/12/25 00:00:48;;;;;;;1.17;0.73;;;-2.20;99.90;;;;;;5113440;28;20168;-76
2021/12/25 00:03:15;;;;;;;2.20;0.63;;;-2.20;99.90;;;;;;5131566;28;20636;-74
2021/12/25 00:05:41;;;;;;;3.37;1.00;;;-2.30;99.90;;;;;;5131858;28;20704;-74
2021/12/25 00:08:06;;;;;;;2.03;0.50;;;-2.20;99.90;;;;;;5112948;28;20260;-74
2021/12/25 00:10:32;;;;;;;3.13;0.77;;;-2.10;99.90;;;;;;5131678;28;20165;-74
2021/12/25 00:12:58;;;;;;;1.23;0.87;;;-2.10;99.90;;;;;;5113191;28;20302;-75
2021/12/25 00:15:24;;;;;;;1.40;0.60;;;-2.10;99.90;;;;;;5132209;28;20165;-75
2021/12/25 00:17:49;;;;;;;2.40;0.80;;;-2.10;99.90;;;;;;5113526;28;20172;-75
2021/12/25 00:20:15;;;;;;;1.73;0.70;;;-2.20;99.90;;;;;;5113440;28;20652;-74
2021/12/25 00:22:41;;;;;;;2.07;0.87;;;-2.30;99.90;;;;;;5112869;28;20295;-74
2021/12/25 00:25:07;;;;;;;2.97;0.80;;;-2.30;99.90;;;;;;5115297;27;20265;-74
2021/12/25 00:27:37;;;;;;;4.17;1.43;;;-2.30;99.90;;;;;;5116852;27;20173;-75
2021/12/25 00:34:58;;;;;;;1.23;0.70;;;-2.30;99.90;;;;;;5135622;27;20165;-75
2021/12/25 00:37:26;;;;;;;0.80;0.70;;;-2.30;99.90;;;;;;5116626;27;20680;-76
2021/12/25 00:39:52;;;;;;;1.30;0.80;;;-2.30;99.90;;;;;;5134795;27;20648;-74
2021/12/25 00:42:17;;;;;;;2.60;1.00;;;-2.30;99.90;;;;;;5135061;27;20234;-74
2021/12/25 00:44:43;;;;;;;2.47;1.00;;;-2.40;99.90;;;;;;5116471;27;20181;-74
2021/12/25 00:47:09;;;;;;;1.30;0.80;;;-2.40;99.90;;;;;;5116540;27;20211;-75
2021/12/25 00:49:35;;;;;;;4.07;1.13;;;-2.30;99.90;;;;;;5115949;27;20208;-75
2021/12/25 00:52:00;;;;;;;1.40;1.00;;;-2.30;99.90;;;;;;5116352;27;20200;-74
2021/12/25 00:54:26;;;;;;;1.87;0.87;;;-2.40;99.90;;;;;;5116230;27;20183;-75
2021/12/25 00:56:51;;;;;;;1.70;0.90;;;-2.40;99.90;;;;;;5116334;27;20218;-77
2021/12/25 00:59:17;;;;;;;2.53;1.00;;;-2.50;99.90;;;;;;5115726;27;20598;-74
2021/12/25 01:01:44;;;;;;;1.20;0.93;;;-2.40;99.90;;;;;;5134407;27;20196;-74
2021/12/25 01:04:10;;;;;;;3.97;1.10;;;-2.50;99.90;;;;;;5116180;27;20176;-74
2021/12/25 01:06:35;;;;;;;1.90;0.67;;;-2.50;99.90;;;;;;5134604;27;20164;-74
2021/12/25 01:09:01;;;;;;;2.60;0.90;;;-2.60;99.90;;;;;;5115627;27;20216;-75
2021/12/25 01:11:29;;;;;;;0.53;0.47;;;-2.60;99.90;;;;;;5115921;27;20752;-75
2021/12/25 01:14:03;;;;;;;2.27;0.80;;;-2.50;99.90;;;;;;5115617;27;20541;-75
2021/12/25 01:17:04;;;;;;;2.17;0.73;;;-2.60;99.90;;;;;;5116132;27;20203;-76
2021/12/25 01:24:51;;;;;;;3.30;1.00;;;-2.50;99.90;;;;;;5134339;27;20251;-75
2021/12/25 01:27:55;;;;;;;3.03;1.00;;;-2.50;99.90;;;;;;5134205;27;20171;-74
2021/12/25 01:30:34;;;;;;;2.73;0.80;;;-2.60;99.90;;;;;;5133794;27;20176;-74
2021/12/25 01:33:25;;;;;;;2.33;1.10;;;-2.60;99.90;;;;;;5115312;27;20287;-75
2021/12/25 01:41:42;;;;;;;3.30;0.60;;;-2.60;99.90;;;;;;5134111;27;20161;-74
2021/12/25 01:49:14;;;;;;;4.53;1.53;;;-2.60;99.90;;;;;;5133510;27;20191;-74
2021/12/25 01:51:40;;;;;;;6.63;2.07;;;-2.50;99.90;;;;;;5133666;27;20633;-74
2021/12/25 01:54:05;;;;;;;4.10;2.37;;;-2.60;99.90;;;;;;5133446;27;20173;-74
2021/12/25 01:56:31;;;;;;;5.60;3.07;;;-2.60;99.90;;;;;;5133559;27;20195;-74
2021/12/25 01:58:57;;;;;;;6.17;2.97;;;-2.60;99.90;;;;;;5131057;27;20193;-74
2021/12/25 02:01:22;;;;;;;6.03;3.13;;;-2.70;99.90;;;;;;5112375;27;20200;-74
2021/12/25 02:03:48;;;;;;;6.63;3.10;;;-2.80;99.90;;;;;;5112205;27;20172;-75
2021/12/25 02:06:13;;;;;;;8.73;3.53;;;-2.80;99.90;;;;;;5133134;27;20173;-74
2021/12/25 02:08:41;;;;;;;8.20;4.00;;;-2.90;99.90;;;;;;5114284;27;20200;-74
2021/12/25 02:11:07;;;;;;;7.47;4.13;;;-2.80;99.90;;;;;;5114785;27;20200;-74
2021/12/25 02:13:33;;;;;;;9.50;4.03;;;-2.70;99.90;;;;;;5114690;27;20541;-74
2021/12/25 02:16:01;;;;;;;7.57;3.23;;;-2.70;99.90;;;;;;5114820;27;20519;-75
2021/12/25 02:18:56;;;;;;;7.07;3.23;;;-2.80;99.90;;;;;;5113399;27;20203;-74
2021/12/25 02:21:22;;;;;;;9.77;4.73;;;-2.80;99.90;;;;;;5132594;27;20695;-75
2021/12/25 02:23:49;;;;;;;16.17;7.10;;;-2.80;99.90;;;;;;5114353;27;20171;-75
2021/12/25 02:26:17;;;;;;;17.27;7.97;;;-3.00;99.90;;;;;;5114520;27;20207;-74
2021/12/25 02:28:43;;;;;;;17.93;6.93;;;-3.00;99.90;;;;;;5113742;27;20175;-74
2021/12/25 02:31:11;;;;;;;16.63;7.83;;;-3.00;99.90;;;;;;5132882;27;20195;-74
2021/12/25 02:33:38;;;;;;;16.93;7.33;;;-3.00;99.90;;;;;;5132685;27;20172;-74
2021/12/25 02:36:07;;;;;;;16.60;7.70;;;-2.90;99.90;;;;;;5132692;27;20172;-75
2021/12/25 02:38:33;;;;;;;16.67;6.37;;;-2.90;99.90;;;;;;5132024;27;20613;-75
2021/12/25 02:41:00;;;;;;;9.87;5.07;;;-2.90;99.90;;;;;;5114156;27;20169;-74
2021/12/25 02:43:25;;;;;;;6.70;4.07;;;-3.00;99.90;;;;;;5132576;27;20212;-74
2021/12/25 02:45:54;;;;;;;5.00;3.50;;;-3.00;99.90;;;;;;5114207;27;20201;-75
2021/12/25 02:48:20;;;;;;;8.33;4.53;;;-3.00;99.90;;;;;;5113065;27;20168;-75
2021/12/25 02:50:46;;;;;;;6.33;3.70;;;-3.10;99.90;;;;;;5113844;27;20169;-74
2021/12/25 02:53:13;;;;;;;6.50;3.53;;;-3.10;99.90;;;;;;5113816;27;20185;-74
2021/12/25 02:55:40;;;;;;;4.80;3.13;;;-3.10;99.90;;;;;;5113723;27;20229;-74
2021/12/25 02:58:06;;;;;;;5.77;2.60;;;-3.20;99.90;;;;;;5132107;27;20179;-74
2021/12/25 03:00:42;;;;;;;3.23;2.20;;;-3.20;99.90;;;;;;5132414;27;20337;-76
2021/12/25 03:03:08;;;;;;;5.37;2.13;;;-3.20;99.90;;;;;;5113709;28;20195;-74
2021/12/25 03:05:35;;;;;;;2.47;1.70;;;-3.10;99.90;;;;;;5132528;27;20172;-75
2021/12/25 03:08:01;;;;;;;3.73;1.60;;;-3.20;99.90;;;;;;5131924;27;20281;-75
2021/12/25 03:10:27;;;;;;;2.93;1.70;;;-3.20;99.90;;;;;;5113620;28;20175;-75
2021/12/25 03:15:55;;;;;;;6.13;2.77;;;-3.20;99.90;;;;;;5132320;28;20172;-74
2021/12/25 03:18:32;;;;;;;6.80;3.37;;;-3.20;99.90;;;;;;5103771;27;20653;-76
2021/12/25 03:21:01;;;;;;;5.47;2.63;;;-3.20;99.90;;;;;;5131977;28;20627;-74
2021/12/25 03:23:28;;;;;;;5.83;2.10;;;-3.20;99.90;;;;;;5114229;28;20570;-74
2021/12/25 03:25:56;;;;;;;4.63;1.70;;;-3.20;99.90;;;;;;5113598;28;20160;-75
2021/12/25 03:28:25;;;;;;;3.30;1.53;;;-3.20;99.90;;;;;;5113254;28;20169;-76
2021/12/25 03:30:51;;;;;;;2.17;1.20;;;-3.20;99.90;;;;;;5113351;28;20176;-75
2021/12/25 03:33:19;;;;;;;3.03;1.10;;;-3.20;99.90;;;;;;5131640;28;20673;-75
2021/12/25 03:35:45;;;;;;;1.87;1.00;;;-3.20;99.90;;;;;;5113588;28;20585;-74
2021/12/25 03:38:15;;;;;;;1.83;0.77;;;-3.20;99.90;;;;;;5131553;28;20172;-75
2021/12/25 03:40:41;;;;;;;2.57;1.10;;;-3.20;99.90;;;;;;5113469;28;20271;-74
2021/12/25 03:43:07;;;;;;;2.17;0.90;;;-3.10;99.90;;;;;;5131743;28;20188;-75
2021/12/25 03:45:34;;;;;;;1.27;0.80;;;-3.10;99.90;;;;;;5131938;28;20191;-74
2021/12/25 03:48:10;;;;;;;1.13;0.60;;;-3.10;99.90;;;;;;5113275;28;20564;-74
2021/12/25 03:57:35;;;;;;;1.83;0.80;;;-3.20;99.90;;;;;;5131799;28;20626;-75
2021/12/25 03:58:56;;;;;;;1.77;0.90;;;-3.30;99.90;;;;;;5133343;27;20209;-74
2021/12/25 04:04:04;;;;;;;1.13;0.60;;;-3.30;99.90;;;;;;5135370;27;20199;-75
2021/12/25 04:06:30;;;;;;;1.63;0.67;;;-3.30;99.90;;;;;;5116921;27;20180;-74
2021/12/25 04:08:57;;;;;;;1.70;0.77;;;-3.30;99.90;;;;;;5116764;27;20283;-74
2021/12/25 04:11:29;;;;;;;1.23;0.53;;;-3.30;99.90;;;;;;5116714;27;20188;-74
2021/12/25 04:13:56;;;;;;;2.60;0.87;;;-3.30;99.90;;;;;;5116648;27;20245;-74
2021/12/25 04:16:21;;;;;;;2.70;0.80;;;-3.30;99.90;;;;;;5117147;27;20180;-75
2021/12/25 04:18:47;;;;;;;1.33;0.70;;;-3.30;99.90;;;;;;5134805;27;20269;-74
2021/12/25 04:21:23;;;;;;;1.90;0.60;;;-3.30;99.90;;;;;;5116894;27;20200;-74
2021/12/25 04:23:49;;;;;;;1.77;0.90;;;-3.30;99.90;;;;;;5134865;27;20521;-74
2021/12/25 04:26:15;;;;;;;2.73;0.93;;;-3.40;99.90;;;;;;5116907;27;20167;-74
2021/12/25 04:29:16;;;;;;;3.10;1.10;;;-3.40;99.90;;;;;;5134707;27;20179;-74
2021/12/25 04:32:02;;;;;;;2.40;1.10;;;-3.40;99.90;;;;;;5134011;27;20214;-74
2021/12/25 05:01:51;;;;;;;3.30;0.93;;;-3.50;99.90;;;;;;5134817;27;20248;-74
2021/12/25 05:04:29;;;;;;;2.23;0.73;;;-3.50;99.90;;;;;;5115990;27;20696;-73
2021/12/25 05:06:55;;;;;;;1.70;0.70;;;-3.50;99.90;;;;;;5116029;27;20180;-74
2021/12/25 05:09:20;;;;;;;1.23;0.63;;;-3.50;99.90;;;;;;5115608;27;20176;-74
2021/12/25 05:11:46;;;;;;;2.23;0.77;;;-3.50;99.90;;;;;;5133726;27;20193;-74
2021/12/25 05:14:12;;;;;;;2.17;1.03;;;-3.50;99.90;;;;;;5115891;27;20176;-74
2021/12/25 05:16:37;;;;;;;1.10;0.60;;;-3.50;99.90;;;;;;5116057;27;20656;-74
2021/12/25 05:19:03;;;;;;;4.70;0.80;;;-3.60;99.90;;;;;;5115352;27;20581;-74
2021/12/25 05:21:29;;;;;;;3.10;0.90;;;-3.60;99.90;;;;;;5133919;27;20605;-74
2021/12/25 05:23:54;;;;;;;3.03;0.90;;;-3.70;99.90;;;;;;5115478;27;20184;-74
2021/12/25 05:26:20;;;;;;;1.17;0.70;;;-3.80;99.90;;;;;;5134205;27;20171;-74
2021/12/25 05:28:46;;;;;;;1.73;0.70;;;-3.90;99.90;;;;;;5133619;27;20229;-74
2021/12/25 05:31:15;;;;;;;1.70;0.97;;;-4.00;99.90;;;;;;5115572;27;20230;-74
2021/12/25 05:33:41;;;;;;;2.40;1.00;;;-3.90;99.90;;;;;;5115229;27;20802;-74
2021/12/25 05:36:08;;;;;;;3.87;0.77;;;-3.80;99.90;;;;;;5115416;27;20179;-74
2021/12/25 05:38:34;;;;;;;2.13;0.90;;;-3.80;99.90;;;;;;5114893;27;20175;-74
2021/12/25 05:41:01;;;;;;;2.47;1.43;;;-3.80;99.90;;;;;;5115297;27;20176;-73
2021/12/25 05:43:27;;;;;;;1.73;0.87;;;-3.80;99.90;;;;;;5133760;27;20613;-74
2021/12/25 05:45:52;;;;;;;3.63;1.00;;;-3.90;99.90;;;;;;5115279;27;20174;-74
2021/12/25 05:48:18;;;;;;;3.83;0.90;;;-4.00;99.90;;;;;;5114640;27;20801;-74
2021/12/25 05:50:44;;;;;;;3.03;0.90;;;-4.00;99.90;;;;;;5115258;27;20207;-74
2021/12/25 05:53:10;;;;;;;2.13;0.80;;;-4.00;99.90;;;;;;5133339;27;20206;-74
2021/12/25 05:55:35;;;;;;;4.37;0.90;;;-4.00;99.90;;;;;;5133402;27;20168;-74
2021/12/25 05:58:03;;;;;;;2.40;1.00;;;-4.00;99.90;;;;;;5133131;27;20168;-73
2021/12/25 06:00:30;;;;;;;1.07;0.70;;;-4.00;99.90;;;;;;5114952;27;20208;-74
2021/12/25 06:02:57;;;;;;;1.07;0.60;;;-4.00;99.90;;;;;;5114630;27;20211;-74
2021/12/25 06:05:23;;;;;;;4.13;0.83;;;-3.90;99.90;;;;;;5133289;27;20224;-74
2021/12/25 06:07:48;;;;;;;2.30;0.87;;;-3.90;99.90;;;;;;5114584;27;20169;-74
2021/12/25 06:10:14;;;;;;;1.43;0.73;;;-3.90;99.90;;;;;;5114530;27;20168;-74
2021/12/25 06:12:43;;;;;;;2.80;0.83;;;-4.00;99.90;;;;;;5114649;27;20224;-74
2021/12/25 06:15:11;;;;;;;2.63;1.10;;;-4.00;99.90;;;;;;5114806;27;20176;-74
2021/12/25 06:17:37;;;;;;;3.83;1.00;;;-4.00;99.90;;;;;;5132929;27;20252;-73
2021/12/25 06:20:04;;;;;;;2.07;0.70;;;-4.00;99.90;;;;;;5114210;27;20286;-73
2021/12/25 06:22:29;;;;;;;1.03;0.73;;;-4.00;99.90;;;;;;5113259;27;20232;-73
2021/12/25 06:24:55;;;;;;;3.27;0.70;;;-4.00;99.90;;;;;;5132914;27;20586;-73
2021/12/25 06:27:21;;;;;;;1.60;0.90;;;-3.90;99.90;;;;;;5133113;27;20168;-74
2021/12/25 06:29:48;;;;;;;0.93;0.47;;;-3.90;99.90;;;;;;5114972;27;20227;-74
2021/12/25 06:32:14;;;;;;;1.87;0.77;;;-3.90;99.90;;;;;;5135106;27;20218;-74
2021/12/25 06:34:40;;;;;;;1.13;0.60;;;-3.90;99.90;;;;;;5114553;27;20635;-74
2021/12/25 06:37:06;;;;;;;1.47;0.90;;;-3.90;99.90;;;;;;5132816;27;20164;-74
2021/12/25 06:39:32;;;;;;;1.90;0.67;;;-3.90;99.90;;;;;;5114089;27;20201;-74
2021/12/25 06:41:58;;;;;;;2.60;0.90;;;-3.90;99.90;;;;;;5132701;27;20241;-74
2021/12/25 06:44:25;;;;;;;2.10;0.80;;;-4.00;99.90;;;;;;5114125;27;20176;-74
2021/12/25 06:46:51;;;;;;;1.57;0.77;;;-4.00;99.90;;;;;;5114287;27;20225;-74
2021/12/25 06:49:17;;;;;;;2.37;0.77;;;-4.00;99.90;;;;;;5132272;27;20168;-74
2021/12/25 06:51:43;;;;;;;0.70;0.50;;;-3.90;99.90;;;;;;5114005;27;20195;-74
2021/12/25 06:54:09;;;;;;;2.60;0.70;;;-3.90;99.90;;;;;;5133071;27;20186;-74
2021/12/25 06:56:34;;;;;;;1.03;0.73;;;-4.00;99.90;;;;;;5134414;27;20171;-74
2021/12/25 06:59:00;;;;;;;1.47;0.70;;;-4.00;99.90;;;;;;5131983;27;20202;-74
2021/12/25 07:01:25;;;;;;;2.80;1.00;;;-4.00;99.90;;;;;;5132356;27;20188;-74
2021/12/25 07:03:51;;;;;;;2.17;0.80;;;-4.10;99.90;;;;;;5132316;27;20171;-74
2021/12/25 07:06:17;;;;;;;1.23;0.73;;;-4.00;99.90;;;;;;5113801;27;20267;-74
2021/12/25 07:08:42;;;;;;;1.17;0.70;;;-4.00;99.90;;;;;;5131702;27;20175;-72
2021/12/25 07:11:07;;;;;;;3.57;1.23;;;-4.00;99.90;;;;;;5113853;28;20233;-72
2021/12/25 07:13:33;;;;;;;2.00;0.73;;;-4.00;99.90;;;;;;5132153;28;20260;-72
2021/12/25 07:15:59;;;;;;;1.57;1.00;;;-4.00;99.90;;;;;;5113909;28;20190;-73
2021/12/25 07:18:24;;;;;;;1.50;0.97;;;-4.00;99.90;;;;;;5113244;28;20182;-73
2021/12/25 07:20:51;;;;;;;1.57;0.87;;;-4.00;99.90;;;;;;5113321;28;20184;-72
2021/12/25 07:23:16;;;;;;;1.23;0.70;;;-3.90;99.90;;;;;;5113722;28;20170;-72
2021/12/25 07:25:42;;;;;;;1.77;0.73;;;-3.90;99.90;;;;;;5113692;28;20616;-72
2021/12/25 07:28:08;;;;;;;2.87;0.87;;;-3.90;99.90;;;;;;5113256;28;20171;-73
2021/12/25 07:30:33;;;;;;;2.40;0.93;;;-3.90;99.90;;;;;;5113679;28;20577;-75
2021/12/25 07:32:59;;;;;;;4.30;1.07;;;-3.80;99.90;;;;;;5132168;27;20700;-72
2021/12/25 07:35:26;;;;;;;2.90;0.93;;;-3.80;99.90;;;;;;5117639;27;20175;-72
2021/12/25 07:37:51;;;;;;;3.63;1.07;;;-3.80;99.90;;;;;;5117387;27;20186;-72
2021/12/25 07:40:17;;;;;;;2.20;0.70;;;-3.80;99.90;;;;;;5117379;27;20215;-73
2021/12/25 07:42:43;;;;;;;2.23;0.90;;;-3.80;99.90;;;;;;5117497;27;20219;-72
2021/12/25 07:45:10;;;;;;;4.03;0.90;;;-3.80;99.90;;;;;;5117420;27;20277;-72
2021/12/25 07:47:40;;;;;;;3.80;0.80;;;-3.70;99.90;;;;;;5117612;27;20258;-73
2021/12/25 07:50:07;;;;;;;2.10;0.90;;;-3.60;99.90;;;;;;5135690;27;20693;-72
2021/12/25 07:52:33;;;;;;;2.87;1.13;;;-3.60;99.90;;;;;;5117304;27;20191;-72
2021/12/25 07:54:58;;;;;;;2.00;1.00;;;-3.60;99.90;;;;;;5117176;27;20508;-72
2021/12/25 07:57:24;;;;;;;5.10;1.40;;;-3.60;99.90;;;;;;5117136;27;20270;-73
2021/12/25 07:59:49;;;;;;;4.20;1.73;;;-3.50;99.90;;;;;;5135270;27;20550;-72
2021/12/25 08:02:15;;;;;;;2.33;1.60;;;-3.50;99.90;;;;;;5117214;27;20188;-73
2021/12/25 08:04:40;;;;;;;1.33;1.10;;;-3.50;99.90;;;;;;5116928;27;20245;-72
2021/12/25 08:07:06;;;;;;;3.13;0.90;;;-3.40;99.90;;;;;;5117249;27;20644;-73
2021/12/25 08:09:32;;;;;;;2.50;1.47;;;-3.40;99.90;;;;;;5135140;27;20182;-73
2021/12/25 08:11:59;;;;;;;2.37;1.00;;;-3.40;99.90;;;;;;5117812;27;20204;-73
2021/12/25 08:14:25;;;;;;;3.20;1.30;;;-3.50;99.90;;;;;;5118958;27;20166;-73
2021/12/25 08:16:56;;;;;;;4.40;0.97;;;-3.50;99.90;;;;;;5135522;27;20183;-73
2021/12/25 08:19:22;;;;;;;2.33;1.37;;;-3.50;99.90;;;;;;5116297;27;20196;-73
2021/12/25 08:21:47;;;;;;;1.57;1.10;;;-3.50;99.90;;;;;;5135143;27;20668;-72
2021/12/25 08:24:14;;;;;;;1.20;1.00;;;-3.40;99.90;;;;;;5135254;27;20188;-73
2021/12/25 08:26:40;;;;;;;3.23;1.07;;;-3.30;99.90;;;;;;5135168;27;20168;-73
2021/12/25 08:29:06;;;;;;;1.10;0.80;;;-3.30;99.90;;;;;;5135057;27;20540;-73
2021/12/25 08:31:31;;;;;;;1.50;1.10;;;-3.20;99.90;;;;;;5135274;27;20192;-73
2021/12/25 08:33:57;;;;;;;3.37;1.47;;;-3.20;99.90;;;;;;5135133;27;20184;-73
2021/12/25 08:36:22;;;;;;;2.93;1.67;;;-3.10;99.90;;;;;;5116779;27;20169;-73
2021/12/25 08:38:48;;;;;;;2.13;1.50;;;-3.10;99.90;;;;;;5116250;27;20206;-72
2021/12/25 08:41:14;;;;;;;2.67;1.30;;;-3.00;99.90;;;;;;5134874;27;20654;-73
2021/12/25 08:43:46;;;;;;;3.83;1.60;;;-2.70;99.90;;;;;;5116379;27;20287;-73
2021/12/25 08:46:18;;;;;;;3.63;1.40;;;-2.30;99.90;;;;;;5133919;27;20313;-73
2021/12/25 08:48:44;;;;;;;3.23;1.73;;;-2.00;99.90;;;;;;5116109;27;20176;-73
2021/12/25 08:51:10;;;;;;;1.77;1.20;;;-1.60;99.90;;;;;;5116369;27;20287;-74
2021/12/25 08:53:36;;;;;;;3.37;1.73;;;-1.50;99.90;;;;;;5116117;27;20173;-74
2021/12/25 08:56:02;;;;;;;2.53;1.60;;;-1.30;99.90;;;;;;5134691;27;20191;-73
2021/12/25 08:58:30;;;;;;;4.57;1.47;;;-1.20;99.90;;;;;;5115457;27;20181;-73
2021/12/25 09:01:01;;;;;;;2.63;1.43;;;-1.00;99.90;;;;;;5134580;27;20173;-74
2021/12/25 09:03:27;;;;;;;1.97;1.27;;;-0.90;99.90;;;;;;5115485;27;20169;-74
2021/12/25 09:05:58;;;;;;;5.13;1.87;;;-1.00;99.90;;;;;;5134388;27;20660;-73
2021/12/25 09:08:24;;;;;;;4.73;1.50;;;-1.30;99.90;;;;;;5134022;27;20622;-73
2021/12/25 09:10:50;;;;;;;3.03;1.70;;;-1.50;99.90;;;;;;5115993;27;20274;-74
2021/12/25 09:13:19;;;;;;;4.40;1.83;;;-1.80;99.90;;;;;;5116202;27;20173;-74
2021/12/25 09:15:45;;;;;;;3.30;1.30;;;-2.10;99.90;;;;;;5116077;27;20180;-74
2021/12/25 09:18:10;;;;;;;2.23;1.40;;;-2.10;99.90;;;;;;5134267;27;20165;-74
2021/12/25 09:20:36;;;;;;;2.40;1.57;;;-2.20;99.90;;;;;;5115941;27;20212;-75
2021/12/25 09:23:02;;;;;;;2.83;1.50;;;-2.20;99.90;;;;;;5134145;27;20222;-75
2021/12/25 09:25:27;;;;;;;4.43;1.33;;;-2.30;99.90;;;;;;5134060;27;20169;-75
2021/12/25 09:27:53;;;;;;;4.43;1.20;;;-2.20;99.90;;;;;;5115655;27;20173;-75
2021/12/25 09:30:19;;;;;;;4.03;1.50;;;-2.40;99.90;;;;;;5115536;27;20180;-75
2021/12/25 09:32:45;;;;;;;8.53;1.40;;;-2.50;99.90;;;;;;5133966;27;20644;-75
2021/12/25 09:35:11;;;;;;;1.50;1.10;;;-2.50;99.90;;;;;;5133947;27;20173;-74
2021/12/25 09:37:37;;;;;;;2.83;1.30;;;-2.30;99.90;;;;;;5133951;27;20183;-75
2021/12/25 09:40:07;;;;;;;2.47;1.37;;;-2.40;99.90;;;;;;5115064;27;20204;-75
2021/12/25 09:42:34;;;;;;;3.50;1.60;;;-2.40;99.90;;;;;;5115216;27;20253;-75
2021/12/25 09:44:59;;;;;;;1.53;1.07;;;-2.40;99.90;;;;;;5114966;27;20690;-75
2021/12/25 09:47:25;;;;;;;1.83;1.20;;;-2.40;99.90;;;;;;5115413;27;20168;-75
2021/12/25 09:49:51;;;;;;;4.23;1.70;;;-2.40;99.90;;;;;;5115368;27;20251;-75
2021/12/25 09:52:18;;;;;;;4.10;1.60;;;-2.40;99.90;;;;;;5115111;27;20201;-75
2021/12/25 09:54:43;;;;;;;2.67;1.77;;;-2.20;99.90;;;;;;5133732;27;20552;-75
2021/12/25 09:57:09;;;;;;;3.27;1.17;;;-1.90;99.90;;;;;;5114916;27;20266;-75
2021/12/25 09:59:35;;;;;;;4.63;1.77;;;-1.60;99.90;;;;;;5114898;27;20205;-74
2021/12/25 10:02:02;;;;;;;2.13;1.30;;;-1.30;99.90;;;;;;5115128;27;20282;-74
2021/12/25 10:04:38;;;;;;;3.37;1.70;;;-1.10;99.90;;;;;;5115651;27;20205;-75
2021/12/25 10:07:29;;;;;;;5.27;2.10;;;-0.90;99.90;;;;;;5115886;27;20184;-75
2021/12/25 10:10:10;;;;;;;3.03;1.60;;;-0.60;99.90;;;;;;5115439;27;20264;-74
2021/12/25 10:12:41;;;;;;;3.23;1.57;;;-0.40;99.90;;;;;;5115591;27;20209;-75
2021/12/25 10:15:12;;;;;;;2.40;1.40;;;-0.20;99.90;;;;;;5114899;27;20173;-75
2021/12/25 10:17:53;;;;;;;3.23;1.63;;;-0.10;99.90;;;;;;5114968;27;20228;-75
2021/12/25 10:20:25;;;;;;;2.00;1.30;;;0.10;99.90;;;;;;5114534;27;20207;-75
2021/12/25 10:23:00;;;;;;;5.90;1.80;;;0.20;99.90;;;;;;5113706;22;20255;-71
2021/12/25 10:25:35;;;;;;;4.67;2.07;;;0.40;99.90;;;;;;5073475;28;20261;-71
2021/12/25 10:28:06;;;;;;;5.50;2.10;;;0.50;99.90;;;;;;5073278;28;20175;-70
2021/12/25 10:30:47;;;;;;;4.60;1.57;;;0.40;99.90;;;;;;5073349;28;20249;-70
2021/12/25 10:33:34;;;;;;;4.03;1.37;;;0.20;99.90;;;;;;5073740;28;20190;-72
2021/12/25 10:36:21;;;;;;;5.77;1.93;;;0.30;99.90;;;;;;5073597;28;20284;-70
2021/12/25 10:39:01;;;;;;;5.23;2.13;;;0.40;99.90;;;;;;5072828;28;20206;-70
2021/12/25 10:41:27;;;;;;;3.50;1.50;;;0.50;99.90;;;;;;5073586;28;20163;-71
2021/12/25 10:44:12;;;;;;;2.90;1.50;;;0.40;99.90;;;;;;5073564;28;20530;-70
2021/12/25 10:46:54;;;;;;;5.80;2.20;;;0.40;99.90;;;;;;5073622;28;20171;-71
2021/12/25 10:49:22;;;;;;;2.93;1.20;;;0.30;99.90;;;;;;5091562;28;20504;-71
2021/12/25 10:51:48;;;;;;;3.57;1.67;;;0.40;99.90;;;;;;5073485;28;20276;-70
2021/12/25 10:54:16;;;;;;;2.93;1.07;;;0.30;99.90;;;;;;5073321;28;20267;-70
2021/12/25 10:56:43;;;;;;;2.43;1.30;;;0.30;99.90;;;;;;5073405;28;20180;-70
2021/12/25 10:59:11;;;;;;;2.57;1.63;;;0.10;99.90;;;;;;5091211;28;20214;-71
2021/12/25 11:01:41;;;;;;;5.83;1.50;;;0.40;99.90;;;;;;5073353;28;20172;-70
2021/12/25 11:04:25;;;;;;;2.70;1.20;;;0.50;99.90;;;;;;5072968;28;20170;-70
2021/12/25 11:06:51;;;;;;;2.83;1.57;;;0.60;99.90;;;;;;5073354;28;20170;-70
2021/12/25 11:09:16;;;;;;;3.17;1.50;;;0.60;99.90;;;;;;5090620;28;20639;-70
2021/12/25 11:11:42;;;;;;;4.40;1.77;;;0.50;99.90;;;;;;5091283;28;20170;-70
2021/12/25 11:14:12;;;;;;;3.97;1.77;;;0.40;99.90;;;;;;5091518;28;20173;-70
2021/12/25 11:16:39;;;;;;;1.93;1.23;;;0.50;99.90;;;;;;5073469;28;20181;-70
2021/12/25 11:19:13;;;;;;;5.40;1.30;;;0.50;99.90;;;;;;5073982;28;20194;-70
2021/12/25 11:21:46;;;;;;;3.93;1.20;;;0.40;99.90;;;;;;5074212;28;20175;-70
2021/12/25 11:24:20;;;;;;;2.70;1.07;;;0.50;99.90;;;;;;5092590;28;20196;-70
2021/12/25 11:26:55;;;;;;;2.50;1.00;;;0.50;99.90;;;;;;5092175;28;20656;-70
2021/12/25 11:29:24;;;;;;;4.63;1.23;;;0.50;99.90;;;;;;5092719;28;20653;-70
2021/12/25 11:31:51;;;;;;;3.97;1.40;;;0.60;99.90;;;;;;5075482;28;20199;-70
2021/12/25 11:34:18;;;;;;;2.83;1.40;;;0.70;99.90;;;;;;5067179;28;20166;-71
2021/12/25 11:36:48;;;;;;;2.27;1.40;;;0.60;99.90;;;;;;5094165;28;20183;-70
2021/12/25 11:39:17;;;;;;;2.87;1.53;;;0.60;99.90;;;;;;5094042;28;20220;-70
2021/12/25 11:41:44;;;;;;;4.53;1.50;;;0.60;99.90;;;;;;5075424;28;20223;-70
2021/12/25 11:44:28;;;;;;;4.37;1.90;;;0.60;99.90;;;;;;5074792;28;20263;-71
2021/12/25 11:46:53;;;;;;;4.17;1.20;;;0.70;99.90;;;;;;5074298;28;20166;-70
2021/12/25 11:49:19;;;;;;;3.67;1.47;;;0.50;99.90;;;;;;5073197;28;20182;-70
2021/12/25 11:51:46;;;;;;;3.33;1.40;;;0.60;99.90;;;;;;5073486;28;21628;-70
2021/12/25 11:58:03;;;;;;;2.90;1.23;;;0.70;99.90;;;;;;5091253;28;20263;-70
2021/12/25 11:59:52;;;;;;;2.33;1.33;;;0.70;99.90;;;;;;5076680;28;20217;-70
2021/12/25 12:02:38;;;;;;;3.80;1.70;;;0.70;99.90;;;;;;5072714;28;20657;-70
2021/12/25 12:05:25;;;;;;;2.43;1.50;;;0.70;99.90;;;;;;5073552;28;20553;-70
2021/12/25 12:08:19;;;;;;;5.53;2.10;;;0.50;99.90;;;;;;5091576;28;20216;-70
2021/12/25 12:10:45;;;;;;;3.47;1.37;;;0.60;99.90;;;;;;5055676;28;20191;-70
2021/12/25 12:13:18;;;;;;;1.67;1.10;;;0.50;99.90;;;;;;5073021;28;20199;-70
2021/12/25 12:15:46;;;;;;;4.17;1.30;;;0.40;99.90;;;;;;5090595;28;20525;-70
2021/12/25 12:18:28;;;;;;;4.17;1.60;;;0.30;99.90;;;;;;5072552;28;20166;-70
2021/12/25 12:21:01;;;;;;;2.83;1.40;;;0.30;99.90;;;;;;5075548;28;20698;-70
2021/12/25 12:26:49;;;;;;;2.33;1.07;;;0.20;99.90;;;;;;5094441;28;20514;-70
2021/12/25 12:29:34;;;;;;;4.10;1.07;;;0.00;99.90;;;;;;5075803;28;20189;-70
2021/12/25 12:32:00;;;;;;;3.57;1.50;;;-0.10;99.90;;;;;;5075980;28;20195;-70
2021/12/25 12:34:40;;;;;;;2.30;1.33;;;-0.10;99.90;;;;;;5075851;28;20542;-70
2021/12/25 12:37:14;;;;;;;3.00;1.43;;;0.00;99.90;;;;;;5094237;28;20189;-70
2021/12/25 12:40:18;;;;;;;2.80;1.13;;;-0.20;99.90;;;;;;5093663;28;20207;-70
2021/12/25 12:42:45;;;;;;;4.07;1.13;;;-0.30;99.90;;;;;;5075639;28;20193;-71
2021/12/25 12:45:12;;;;;;;2.07;1.30;;;-0.30;99.90;;;;;;5075757;28;20517;-70
2021/12/25 12:47:38;;;;;;;1.90;1.43;;;-0.20;99.90;;;;;;5075640;28;20185;-69
2021/12/25 12:50:05;;;;;;;1.33;1.00;;;-0.30;99.90;;;;;;5093801;28;20528;-70
2021/12/25 12:52:38;;;;;;;2.30;1.13;;;-0.40;99.90;;;;;;5075637;28;20246;-70
2021/12/25 12:55:08;;;;;;;3.00;1.10;;;-0.40;99.90;;;;;;5075567;28;20178;-71
2021/12/25 12:57:43;;;;;;;3.40;1.27;;;-0.40;99.90;;;;;;5075319;28;20227;-69
2021/12/25 13:00:09;;;;;;;1.83;1.10;;;-0.50;99.90;;;;;;5075266;28;20215;-70
2021/12/25 13:02:41;;;;;;;3.00;1.40;;;-0.60;99.90;;;;;;5075325;28;20192;-70
2021/12/25 13:05:07;;;;;;;10.67;4.40;;;-0.60;99.90;;;;;;5075005;28;20188;-71
2021/12/25 13:07:34;;;;;;;2.70;1.30;;;-0.60;99.90;;;;;;5075394;28;20264;-71
2021/12/25 13:10:17;;;;;;;3.97;1.00;;;-0.50;99.90;;;;;;5074706;28;20597;-70
2021/12/25 13:12:48;;;;;;;3.10;1.33;;;-0.40;99.90;;;;;;5075000;28;20250;-71
2021/12/25 13:15:25;;;;;;;2.67;1.20;;;-0.40;99.90;;;;;;5075256;28;20179;-69
2021/12/25 13:17:54;;;;;;;2.97;1.03;;;-0.40;99.90;;;;;;5074212;28;20190;-70
2021/12/25 13:20:48;;;;;;;1.30;0.90;;;-0.50;99.90;;;;;;5074959;28;20209;-70
2021/12/25 13:23:20;;;;;;;2.10;1.07;;;-0.60;99.90;;;;;;5065144;28;20563;-71
2021/12/25 13:26:04;;;;;;;2.67;0.87;;;-0.50;99.90;;;;;;5093037;28;20627;-69
2021/12/25 13:28:33;;;;;;;3.27;1.00;;;-0.50;99.90;;;;;;5074773;28;20177;-70
2021/12/25 13:31:03;;;;;;;2.17;0.80;;;-0.50;99.90;;;;;;5092316;28;20641;-70
2021/12/25 13:33:33;;;;;;;2.90;1.20;;;-0.60;99.90;;;;;;5075002;28;20234;-70
2021/12/25 13:36:11;;;;;;;2.43;1.33;;;-0.60;99.90;;;;;;5074505;28;20649;-71
2021/12/25 13:38:59;;;;;;;3.13;1.17;;;-0.50;99.90;;;;;;5074648;28;20173;-70
2021/12/25 13:41:39;;;;;;;2.63;1.30;;;-0.60;99.90;;;;;;5075007;28;20705;-70
2021/12/25 13:44:18;;;;;;;3.00;1.20;;;-0.60;99.90;;;;;;5075097;28;20183;-70
2021/12/25 13:46:47;;;;;;;2.60;1.60;;;-0.70;99.90;;;;;;5075245;28;20176;-70
2021/12/25 13:49:37;;;;;;;2.60;1.50;;;-0.70;99.90;;;;;;5074275;28;20173;-70
2021/12/25 13:52:24;;;;;;;2.33;1.60;;;-0.80;99.90;;;;;;5074336;28;20193;-71
2021/12/25 13:54:55;;;;;;;7.07;1.87;;;-0.90;99.90;;;;;;5074129;28;20173;-70
2021/12/25 13:57:22;;;;;;;5.70;1.90;;;-0.90;99.90;;;;;;5092585;28;20179;-70
2021/12/25 13:59:50;;;;;;;5.87;2.10;;;-0.80;99.90;;;;;;5073878;28;20208;-70
2021/12/25 14:02:17;;;;;;;4.50;1.77;;;-0.80;99.90;;;;;;5092505;28;20766;-70
2021/12/25 14:04:45;;;;;;;4.60;1.83;;;-0.90;99.90;;;;;;5092389;28;20689;-70